Time;durP1;ratioP1;P1;durP2;ratioP2;P2;SDS_P1;SDS_P2;PMS_P1;PMS_P2;Temp;Humidity;BMP_temperature;BMP_pressure;BME280_temperature;BME280_humidity;BME280_pressure;Samples;Min_cycle;Max_cycle;Signal;HPM_P1;HPM_P2
2022/05/28 00:00:48;;;;;;;;;;;21.50;50.50;;;;;;484701;246;1151;-78
2022/05/28 00:02:49;;;;;;;;;;;21.40;50.50;;;;;;484868;246;2188;-78
2022/05/28 00:04:51;;;;;;;;;;;21.40;50.50;;;;;;484713;246;1091;-78
2022/05/28 00:06:52;;;;;;;;;;;21.40;50.60;;;;;;484611;242;1265;-78
2022/05/28 00:08:56;;;;;;;;;;;21.30;50.70;;;;;;485020;246;1116;-78
2022/05/28 00:10:55;;;;;;;;;;;21.30;50.70;;;;;;484513;246;1323;-78
2022/05/28 00:12:56;;;;;;;;;;;21.30;50.80;;;;;;484738;246;1091;-78
2022/05/28 00:14:58;;;;;;;;;;;21.20;50.90;;;;;;484830;246;1127;-78
2022/05/28 00:16:59;;;;;;;;;;;21.20;50.90;;;;;;484821;237;1095;-78
2022/05/28 00:19:01;;;;;;;;;;;21.20;50.90;;;;;;484689;246;1066;-78
2022/05/28 00:21:02;;;;;;;;;;;21.20;50.80;;;;;;484654;246;1196;-78
2022/05/28 00:23:04;;;;;;;;;;;21.20;50.70;;;;;;484877;246;2140;-78
2022/05/28 00:25:05;;;;;;;;;;;21.20;50.80;;;;;;485060;246;1129;-78
2022/05/28 00:27:06;;;;;;;;;;;21.20;50.80;;;;;;484940;246;1148;-78
2022/05/28 00:29:07;;;;;;;;;;;21.30;50.80;;;;;;484736;246;1111;-78
2022/05/28 00:31:09;;;;;;;;;;;21.30;50.70;;;;;;484774;246;1150;-78
2022/05/28 00:33:10;;;;;;;;;;;21.40;50.60;;;;;;484807;246;1141;-78
2022/05/28 00:35:11;;;;;;;;;;;21.40;50.60;;;;;;484729;246;981;-77
2022/05/28 00:37:13;;;;;;;;;;;21.40;50.60;;;;;;484637;246;1236;-76
2022/05/28 00:39:14;;;;;;;;;;;21.30;50.70;;;;;;484697;246;965;-76
2022/05/28 00:41:15;;;;;;;;;;;21.30;50.80;;;;;;484680;246;1141;-76
2022/05/28 00:43:17;;;;;;;;;;;21.30;50.60;;;;;;484617;246;2195;-76
2022/05/28 00:45:18;;;;;;;;;;;21.30;50.50;;;;;;484689;246;1165;-76
2022/05/28 00:47:20;;;;;;;;;;;21.20;50.70;;;;;;484621;246;1038;-76
2022/05/28 00:49:21;;;;;;;;;;;21.20;50.80;;;;;;484694;246;1111;-76
2022/05/28 00:51:22;;;;;;;;;;;21.20;50.80;;;;;;484605;246;1131;-76
2022/05/28 00:53:24;;;;;;;;;;;21.20;50.70;;;;;;484649;246;1064;-76
2022/05/28 00:55:25;;;;;;;;;;;21.20;50.70;;;;;;484657;246;1033;-76
2022/05/28 00:57:26;;;;;;;;;;;21.20;50.70;;;;;;484651;246;1052;-76
2022/05/28 00:59:28;;;;;;;;;;;21.20;50.80;;;;;;484693;246;1315;-76
2022/05/28 01:01:29;;;;;;;;;;;21.30;50.70;;;;;;484863;242;2136;-76
2022/05/28 01:03:31;;;;;;;;;;;21.30;50.80;;;;;;484713;245;960;-76
2022/05/28 01:05:32;;;;;;;;;;;21.30;50.70;;;;;;484633;246;1388;-76
2022/05/28 01:07:33;;;;;;;;;;;21.40;50.70;;;;;;484681;246;1119;-76
2022/05/28 01:09:34;;;;;;;;;;;21.40;50.60;;;;;;484747;246;966;-76
2022/05/28 01:11:36;;;;;;;;;;;21.30;50.60;;;;;;484665;246;1063;-76
2022/05/28 01:13:37;;;;;;;;;;;21.30;50.60;;;;;;484705;246;1072;-76
2022/05/28 01:15:38;;;;;;;;;;;21.30;50.50;;;;;;484697;246;928;-76
2022/05/28 01:17:40;;;;;;;;;;;21.20;50.60;;;;;;484907;246;1051;-76
2022/05/28 01:19:41;;;;;;;;;;;21.20;50.70;;;;;;484688;246;982;-76
2022/05/28 01:21:42;;;;;;;;;;;21.20;50.80;;;;;;484550;246;2179;-76
2022/05/28 01:23:44;;;;;;;;;;;21.30;50.70;;;;;;484710;246;1074;-76
2022/05/28 01:25:45;;;;;;;;;;;21.30;50.60;;;;;;484728;246;976;-76
2022/05/28 01:27:46;;;;;;;;;;;21.40;50.50;;;;;;484708;246;1160;-76
2022/05/28 01:29:48;;;;;;;;;;;21.40;50.40;;;;;;484664;246;1224;-76
2022/05/28 01:31:49;;;;;;;;;;;21.40;50.50;;;;;;484582;246;934;-76
2022/05/28 01:33:50;;;;;;;;;;;21.50;50.50;;;;;;484650;246;1016;-76
2022/05/28 01:35:52;;;;;;;;;;;21.40;50.30;;;;;;484676;246;1066;-76
2022/05/28 01:37:53;;;;;;;;;;;21.40;50.40;;;;;;484695;246;1085;-77
2022/05/28 01:39:55;;;;;;;;;;;21.40;50.30;;;;;;484698;246;956;-76
2022/05/28 01:41:56;;;;;;;;;;;21.40;50.30;;;;;;484693;246;2195;-76
2022/05/28 01:43:57;;;;;;;;;;;21.40;50.30;;;;;;484851;246;1100;-76
2022/05/28 01:45:59;;;;;;;;;;;21.40;50.30;;;;;;484624;246;1012;-76
2022/05/28 01:48:00;;;;;;;;;;;21.40;50.40;;;;;;484592;246;983;-76
2022/05/28 01:50:01;;;;;;;;;;;21.40;50.40;;;;;;484648;246;938;-76
2022/05/28 01:52:03;;;;;;;;;;;21.40;50.30;;;;;;484982;246;1000;-76
2022/05/28 01:54:12;;;;;;;;;;;21.50;50.30;;;;;;484650;246;1009;-76
2022/05/28 01:56:13;;;;;;;;;;;21.50;50.20;;;;;;484677;246;1078;-76
2022/05/28 01:58:14;;;;;;;;;;;21.50;50.20;;;;;;484661;246;986;-76
2022/05/28 02:00:16;;;;;;;;;;;21.50;50.30;;;;;;484697;246;1180;-76
2022/05/28 02:02:17;;;;;;;;;;;21.50;50.30;;;;;;484621;246;2187;-76
2022/05/28 02:04:18;;;;;;;;;;;21.40;50.30;;;;;;484917;242;1158;-76
2022/05/28 02:06:20;;;;;;;;;;;21.40;50.30;;;;;;484611;246;1153;-75
2022/05/28 02:08:21;;;;;;;;;;;21.40;50.30;;;;;;484673;246;1089;-76
2022/05/28 02:10:22;;;;;;;;;;;21.40;50.20;;;;;;484794;246;1097;-76
2022/05/28 02:12:24;;;;;;;;;;;21.40;50.20;;;;;;484628;246;1314;-76
2022/05/28 02:14:25;;;;;;;;;;;21.30;50.30;;;;;;485014;242;1151;-76
2022/05/28 02:16:26;;;;;;;;;;;21.30;50.40;;;;;;484607;246;1096;-76
2022/05/28 02:18:28;;;;;;;;;;;21.30;50.40;;;;;;484760;246;1075;-76
2022/05/28 02:20:29;;;;;;;;;;;21.30;50.40;;;;;;484586;246;1062;-76
2022/05/28 02:22:30;;;;;;;;;;;21.30;50.40;;;;;;484952;246;2120;-76
2022/05/28 02:24:32;;;;;;;;;;;21.30;50.50;;;;;;484674;242;1145;-76
2022/05/28 02:26:33;;;;;;;;;;;21.30;50.60;;;;;;484633;246;1189;-76
2022/05/28 02:28:34;;;;;;;;;;;21.30;50.50;;;;;;485002;246;1214;-76
2022/05/28 02:30:36;;;;;;;;;;;21.30;50.50;;;;;;484691;246;1179;-76
2022/05/28 02:32:37;;;;;;;;;;;21.30;50.50;;;;;;484692;246;1054;-76
2022/05/28 02:34:38;;;;;;;;;;;21.30;50.40;;;;;;484707;246;949;-76
2022/05/28 02:36:40;;;;;;;;;;;21.30;50.40;;;;;;484652;246;1277;-76
2022/05/28 02:38:41;;;;;;;;;;;21.20;50.40;;;;;;484642;246;1197;-76
2022/05/28 02:40:42;;;;;;;;;;;21.20;50.60;;;;;;484647;246;959;-76
2022/05/28 02:42:44;;;;;;;;;;;21.20;50.60;;;;;;484675;246;2187;-76
2022/05/28 02:44:45;;;;;;;;;;;21.20;50.50;;;;;;484677;246;1150;-76
2022/05/28 02:46:46;;;;;;;;;;;21.30;50.50;;;;;;484622;246;1100;-76
2022/05/28 02:48:48;;;;;;;;;;;21.30;50.50;;;;;;484725;246;965;-76
2022/05/28 02:50:49;;;;;;;;;;;21.30;50.50;;;;;;484622;246;984;-76
2022/05/28 02:52:50;;;;;;;;;;;21.30;50.50;;;;;;484679;246;1261;-76
2022/05/28 02:54:52;;;;;;;;;;;21.20;50.60;;;;;;484685;246;1024;-76
2022/05/28 02:56:54;;;;;;;;;;;21.30;50.50;;;;;;484748;246;1250;-76
2022/05/28 02:58:54;;;;;;;;;;;21.30;50.40;;;;;;484928;246;1466;-76
2022/05/28 03:00:56;;;;;;;;;;;21.20;50.50;;;;;;484620;246;1244;-76
2022/05/28 03:02:57;;;;;;;;;;;21.20;50.40;;;;;;484605;246;2171;-76
2022/05/28 03:04:58;;;;;;;;;;;21.10;50.40;;;;;;484654;246;1012;-76
2022/05/28 03:06:59;;;;;;;;;;;21.20;50.50;;;;;;484738;242;1240;-76
2022/05/28 03:09:01;;;;;;;;;;;21.10;50.80;;;;;;484641;246;1088;-76
2022/05/28 03:11:02;;;;;;;;;;;21.20;50.70;;;;;;484636;246;1133;-76
2022/05/28 03:13:04;;;;;;;;;;;21.20;50.60;;;;;;484643;246;1056;-76
2022/05/28 03:15:05;;;;;;;;;;;21.20;50.60;;;;;;484662;246;1149;-76
2022/05/28 03:17:06;;;;;;;;;;;21.30;50.60;;;;;;484634;246;990;-76
2022/05/28 03:19:07;;;;;;;;;;;21.30;50.40;;;;;;484606;246;1046;-76
2022/05/28 03:21:09;;;;;;;;;;;21.30;50.30;;;;;;484561;246;1136;-76
2022/05/28 03:23:10;;;;;;;;;;;21.40;50.40;;;;;;484650;246;2176;-76
2022/05/28 03:25:11;;;;;;;;;;;21.30;50.30;;;;;;484638;246;957;-76
2022/05/28 03:27:13;;;;;;;;;;;21.20;50.30;;;;;;484639;246;968;-76
2022/05/28 03:29:14;;;;;;;;;;;21.20;50.40;;;;;;484612;246;945;-76
2022/05/28 03:31:15;;;;;;;;;;;21.20;50.50;;;;;;484687;246;1198;-76
2022/05/28 03:33:17;;;;;;;;;;;21.10;50.50;;;;;;484665;246;1101;-76
2022/05/28 03:35:18;;;;;;;;;;;21.00;50.70;;;;;;484635;246;1333;-76
2022/05/28 03:37:19;;;;;;;;;;;21.10;50.70;;;;;;484794;246;1074;-76
2022/05/28 03:39:21;;;;;;;;;;;21.20;50.60;;;;;;484708;246;1253;-76
2022/05/28 03:41:22;;;;;;;;;;;21.10;50.60;;;;;;484886;246;1061;-76
2022/05/28 03:43:23;;;;;;;;;;;21.10;50.70;;;;;;484726;246;2196;-76
2022/05/28 03:45:25;;;;;;;;;;;21.10;50.80;;;;;;484877;246;1186;-76
2022/05/28 03:47:26;;;;;;;;;;;21.10;50.70;;;;;;484718;246;1068;-76
2022/05/28 03:49:27;;;;;;;;;;;21.10;50.50;;;;;;484705;246;1243;-76
2022/05/28 03:51:30;;;;;;;;;;;21.10;50.50;;;;;;484818;246;1128;-76
2022/05/28 03:53:30;;;;;;;;;;;21.10;50.50;;;;;;484889;246;1311;-76
2022/05/28 03:55:31;;;;;;;;;;;21.00;50.50;;;;;;484643;246;1133;-76
2022/05/28 03:57:33;;;;;;;;;;;21.00;50.50;;;;;;484649;246;1131;-76
2022/05/28 03:59:35;;;;;;;;;;;21.10;50.40;;;;;;484703;246;1197;-76
2022/05/28 04:01:36;;;;;;;;;;;21.00;50.50;;;;;;484666;246;1196;-76
2022/05/28 04:03:37;;;;;;;;;;;21.00;50.50;;;;;;484667;246;2179;-76
2022/05/28 04:05:39;;;;;;;;;;;21.00;50.70;;;;;;484621;246;1216;-76
2022/05/28 04:07:40;;;;;;;;;;;21.00;50.60;;;;;;484700;246;1051;-76
2022/05/28 04:09:41;;;;;;;;;;;21.00;50.50;;;;;;484865;246;1291;-76
2022/05/28 04:11:42;;;;;;;;;;;21.00;50.50;;;;;;484622;246;969;-76
2022/05/28 04:13:44;;;;;;;;;;;21.00;50.50;;;;;;484644;246;1003;-76
2022/05/28 04:15:45;;;;;;;;;;;20.90;50.60;;;;;;484698;246;1339;-76
2022/05/28 04:17:47;;;;;;;;;;;20.90;50.60;;;;;;484645;246;1161;-76
2022/05/28 04:19:48;;;;;;;;;;;20.90;50.70;;;;;;484699;246;1079;-76
2022/05/28 04:21:49;;;;;;;;;;;21.00;50.70;;;;;;484572;246;990;-76
2022/05/28 04:23:50;;;;;;;;;;;21.00;50.60;;;;;;484606;246;2179;-76
2022/05/28 04:25:52;;;;;;;;;;;21.00;50.60;;;;;;484637;246;1116;-76
2022/05/28 04:27:53;;;;;;;;;;;20.90;50.50;;;;;;484671;246;1113;-76
2022/05/28 04:29:54;;;;;;;;;;;20.90;50.40;;;;;;484692;246;1216;-76
2022/05/28 04:31:56;;;;;;;;;;;20.90;50.50;;;;;;484679;246;1216;-76
2022/05/28 04:33:57;;;;;;;;;;;20.90;50.40;;;;;;484633;246;1110;-76
2022/05/28 04:35:58;;;;;;;;;;;20.90;50.50;;;;;;484645;246;1138;-76
2022/05/28 04:38:00;;;;;;;;;;;20.80;50.50;;;;;;484731;242;1155;-76
2022/05/28 04:40:01;;;;;;;;;;;20.80;50.50;;;;;;484651;246;1203;-76
2022/05/28 04:42:02;;;;;;;;;;;20.90;50.30;;;;;;484542;246;1056;-76
2022/05/28 04:44:04;;;;;;;;;;;20.80;50.30;;;;;;484614;246;2191;-76
2022/05/28 04:46:05;;;;;;;;;;;20.80;50.20;;;;;;484664;246;1151;-76
2022/05/28 04:48:06;;;;;;;;;;;20.80;50.30;;;;;;484884;246;1227;-76
2022/05/28 04:50:08;;;;;;;;;;;20.70;50.30;;;;;;484886;246;1100;-76
2022/05/28 04:52:09;;;;;;;;;;;20.70;50.30;;;;;;484726;241;1266;-76
2022/05/28 04:54:10;;;;;;;;;;;20.80;50.30;;;;;;484567;246;1012;-76
2022/05/28 04:56:12;;;;;;;;;;;20.70;50.20;;;;;;484623;246;934;-76
2022/05/28 04:58:13;;;;;;;;;;;20.80;50.20;;;;;;484648;246;1065;-76
2022/05/28 05:00:14;;;;;;;;;;;20.80;50.10;;;;;;484689;246;1014;-76
2022/05/28 05:02:16;;;;;;;;;;;20.80;50.00;;;;;;484668;246;1170;-76
2022/05/28 05:04:17;;;;;;;;;;;20.80;49.80;;;;;;484638;246;2155;-76
2022/05/28 05:06:18;;;;;;;;;;;20.80;49.70;;;;;;484606;246;1028;-76
2022/05/28 05:08:20;;;;;;;;;;;20.80;49.50;;;;;;484611;246;975;-76
2022/05/28 05:10:21;;;;;;;;;;;20.80;49.50;;;;;;484642;246;1012;-76
2022/05/28 05:12:22;;;;;;;;;;;20.80;49.30;;;;;;484618;246;958;-76
2022/05/28 05:14:24;;;;;;;;;;;20.80;49.20;;;;;;484631;246;1205;-76
2022/05/28 05:16:25;;;;;;;;;;;20.90;49.20;;;;;;484803;246;1141;-76
2022/05/28 05:18:26;;;;;;;;;;;20.90;49.10;;;;;;484978;246;1122;-76
2022/05/28 05:20:28;;;;;;;;;;;20.90;49.00;;;;;;484651;246;1103;-75
2022/05/28 05:22:29;;;;;;;;;;;20.90;49.00;;;;;;484671;246;1100;-76
2022/05/28 05:24:33;;;;;;;;;;;20.90;48.90;;;;;;484646;246;2180;-76
2022/05/28 05:26:32;;;;;;;;;;;20.90;48.90;;;;;;484504;246;1520;-76
2022/05/28 05:28:33;;;;;;;;;;;20.90;48.90;;;;;;484818;246;1162;-76
2022/05/28 05:30:35;;;;;;;;;;;20.90;48.80;;;;;;484659;246;1181;-76
2022/05/28 05:32:36;;;;;;;;;;;21.00;48.80;;;;;;484709;246;1190;-76
2022/05/28 05:34:37;;;;;;;;;;;20.90;48.70;;;;;;484731;246;1242;-78
2022/05/28 05:36:39;;;;;;;;;;;20.90;48.60;;;;;;484584;246;1120;-78
2022/05/28 05:38:40;;;;;;;;;;;20.90;48.60;;;;;;484849;246;1191;-79
2022/05/28 05:40:41;;;;;;;;;;;20.90;48.50;;;;;;484671;246;1133;-78
2022/05/28 05:42:43;;;;;;;;;;;20.80;48.50;;;;;;484890;246;1211;-78
2022/05/28 05:44:44;;;;;;;;;;;20.80;48.60;;;;;;484683;246;2175;-78
2022/05/28 05:46:45;;;;;;;;;;;20.80;48.60;;;;;;484784;246;1168;-79
2022/05/28 05:48:47;;;;;;;;;;;20.80;48.40;;;;;;484797;242;1139;-78
2022/05/28 05:50:48;;;;;;;;;;;20.80;48.40;;;;;;484557;246;1099;-78
2022/05/28 05:52:49;;;;;;;;;;;20.90;48.40;;;;;;484624;246;1157;-78
2022/05/28 05:54:51;;;;;;;;;;;20.90;48.20;;;;;;484782;246;1181;-78
2022/05/28 05:56:52;;;;;;;;;;;21.00;48.20;;;;;;484598;246;1151;-78
2022/05/28 05:58:53;;;;;;;;;;;20.90;48.10;;;;;;484608;246;1153;-78
2022/05/28 06:00:55;;;;;;;;;;;20.90;48.10;;;;;;484646;246;1086;-79
2022/05/28 06:02:56;;;;;;;;;;;20.90;48.00;;;;;;484709;246;1212;-79
2022/05/28 06:04:58;;;;;;;;;;;20.90;48.00;;;;;;484613;246;2148;-79
2022/05/28 06:06:59;;;;;;;;;;;20.90;48.00;;;;;;484779;246;1162;-78
2022/05/28 06:09:00;;;;;;;;;;;20.80;48.00;;;;;;484842;246;1151;-78
2022/05/28 06:11:02;;;;;;;;;;;20.80;48.20;;;;;;484727;246;1095;-78
2022/05/28 06:13:03;;;;;;;;;;;20.70;48.20;;;;;;484783;246;1187;-78
2022/05/28 06:15:04;;;;;;;;;;;20.70;48.20;;;;;;484773;246;1137;-78
2022/05/28 06:17:06;;;;;;;;;;;20.70;48.30;;;;;;484650;246;1117;-79
2022/05/28 06:19:08;;;;;;;;;;;20.80;48.20;;;;;;484632;246;1231;-79
2022/05/28 06:21:08;;;;;;;;;;;20.80;48.20;;;;;;484784;246;1391;-78
2022/05/28 06:23:10;;;;;;;;;;;20.80;48.20;;;;;;484706;246;988;-78
2022/05/28 06:25:11;;;;;;;;;;;20.80;48.10;;;;;;484688;246;2199;-79
2022/05/28 06:27:12;;;;;;;;;;;20.90;48.10;;;;;;484867;246;1086;-79
2022/05/28 06:29:14;;;;;;;;;;;20.80;48.00;;;;;;484740;246;1238;-78
2022/05/28 06:31:15;;;;;;;;;;;20.80;48.10;;;;;;484801;246;995;-78
2022/05/28 06:33:17;;;;;;;;;;;20.80;48.20;;;;;;484744;246;1166;-78
2022/05/28 06:35:18;;;;;;;;;;;20.70;48.20;;;;;;484839;246;1284;-78
2022/05/28 06:37:19;;;;;;;;;;;20.70;48.30;;;;;;484620;246;1223;-78
2022/05/28 06:39:22;;;;;;;;;;;20.70;48.50;;;;;;484835;246;1076;-79
2022/05/28 06:41:22;;;;;;;;;;;20.60;48.60;;;;;;484614;246;1358;-78
2022/05/28 06:43:23;;;;;;;;;;;20.60;48.60;;;;;;484686;246;1079;-78
2022/05/28 06:45:24;;;;;;;;;;;20.60;48.80;;;;;;484704;246;2183;-78
2022/05/28 06:47:26;;;;;;;;;;;20.60;48.70;;;;;;484900;246;1174;-78
2022/05/28 06:49:27;;;;;;;;;;;20.60;48.60;;;;;;484691;242;1182;-79
2022/05/28 06:51:28;;;;;;;;;;;20.60;48.60;;;;;;484699;246;1119;-79
2022/05/28 06:53:30;;;;;;;;;;;20.70;48.70;;;;;;484661;246;1040;-79
2022/05/28 06:55:31;;;;;;;;;;;20.60;48.70;;;;;;484716;246;983;-78
2022/05/28 06:57:32;;;;;;;;;;;20.60;48.70;;;;;;484686;246;1070;-78
2022/05/28 06:59:34;;;;;;;;;;;20.60;48.70;;;;;;484673;246;972;-78
2022/05/28 07:01:35;;;;;;;;;;;20.50;48.70;;;;;;484736;246;969;-78
2022/05/28 07:03:36;;;;;;;;;;;20.50;48.80;;;;;;484726;246;2183;-78
2022/05/28 07:05:38;;;;;;;;;;;20.50;48.70;;;;;;484655;246;1093;-79
2022/05/28 07:07:39;;;;;;;;;;;20.50;48.70;;;;;;484743;246;994;-78
2022/05/28 07:09:40;;;;;;;;;;;20.60;48.60;;;;;;484710;246;935;-78
2022/05/28 07:11:42;;;;;;;;;;;20.70;48.50;;;;;;484653;246;963;-78
2022/05/28 07:13:43;;;;;;;;;;;20.70;48.20;;;;;;484694;246;971;-79
2022/05/28 07:15:44;;;;;;;;;;;20.70;48.00;;;;;;484686;246;962;-79
2022/05/28 07:17:46;;;;;;;;;;;20.70;48.00;;;;;;484708;246;1150;-79
2022/05/28 07:19:47;;;;;;;;;;;20.80;47.90;;;;;;484743;246;1069;-78
2022/05/28 07:21:48;;;;;;;;;;;20.70;47.90;;;;;;484582;246;954;-78
2022/05/28 07:23:50;;;;;;;;;;;20.70;48.00;;;;;;484664;246;2191;-78
2022/05/28 07:25:53;;;;;;;;;;;20.80;47.90;;;;;;484616;246;988;-78
2022/05/28 07:27:53;;;;;;;;;;;20.80;47.80;;;;;;485024;246;1408;-78
2022/05/28 07:29:55;;;;;;;;;;;20.90;47.60;;;;;;484757;246;960;-78
2022/05/28 07:31:56;;;;;;;;;;;20.90;47.50;;;;;;484706;246;1182;-78
2022/05/28 07:33:57;;;;;;;;;;;21.00;47.50;;;;;;484635;246;1092;-78
2022/05/28 07:35:59;;;;;;;;;;;21.00;47.60;;;;;;484645;246;1156;-78
2022/05/28 07:38:00;;;;;;;;;;;21.00;47.60;;;;;;484694;246;1065;-78
2022/05/28 07:40:01;;;;;;;;;;;21.00;47.60;;;;;;484694;246;1130;-78
2022/05/28 07:42:03;;;;;;;;;;;21.00;47.30;;;;;;484584;246;1210;-79
2022/05/28 07:44:04;;;;;;;;;;;20.90;47.20;;;;;;484790;246;2136;-78
2022/05/28 07:46:05;;;;;;;;;;;20.90;47.20;;;;;;484722;246;1216;-78
2022/05/28 07:48:06;;;;;;;;;;;20.90;47.20;;;;;;484701;246;1152;-78
2022/05/28 07:50:08;;;;;;;;;;;20.90;47.20;;;;;;484738;246;1059;-78
2022/05/28 07:52:10;;;;;;;;;;;20.90;47.00;;;;;;484702;246;1053;-78
2022/05/28 07:54:10;;;;;;;;;;;21.00;47.00;;;;;;484916;246;1114;-78
2022/05/28 07:56:12;;;;;;;;;;;20.90;47.00;;;;;;484626;242;1173;-78
2022/05/28 07:58:14;;;;;;;;;;;21.00;46.80;;;;;;484693;246;1131;-78
2022/05/28 08:00:14;;;;;;;;;;;21.00;46.80;;;;;;484972;246;1359;-78
2022/05/28 08:02:16;;;;;;;;;;;21.10;46.60;;;;;;484630;246;1135;-78
2022/05/28 08:04:17;;;;;;;;;;;21.10;46.50;;;;;;484700;246;2182;-78
2022/05/28 08:06:18;;;;;;;;;;;21.00;46.30;;;;;;484692;242;1156;-78
2022/05/28 08:08:20;;;;;;;;;;;21.00;46.30;;;;;;484919;245;1258;-78
2022/05/28 08:10:21;;;;;;;;;;;20.90;46.20;;;;;;484805;245;1216;-79
2022/05/28 08:12:22;;;;;;;;;;;20.90;46.10;;;;;;484569;246;1177;-78
2022/05/28 08:14:24;;;;;;;;;;;21.00;46.10;;;;;;484641;246;1061;-78
2022/05/28 08:16:25;;;;;;;;;;;21.00;46.00;;;;;;484589;243;1247;-78
2022/05/28 08:18:27;;;;;;;;;;;20.90;45.90;;;;;;484635;246;1173;-78
2022/05/28 08:25:08;;;;;;;;;;;21.00;45.80;;;;;;484599;246;2128;-79
2022/05/28 08:27:09;;;;;;;;;;;20.90;45.70;;;;;;484701;246;1230;-78
2022/05/28 08:29:11;;;;;;;;;;;21.00;45.60;;;;;;484823;246;1134;-78
2022/05/28 08:31:12;;;;;;;;;;;20.90;45.60;;;;;;484597;246;1268;-78
2022/05/28 08:33:13;;;;;;;;;;;21.00;45.60;;;;;;484622;246;1121;-78
2022/05/28 08:35:15;;;;;;;;;;;21.00;45.50;;;;;;484614;246;1123;-78
2022/05/28 08:37:16;;;;;;;;;;;21.10;45.30;;;;;;484840;246;1089;-78
2022/05/28 08:39:17;;;;;;;;;;;21.00;45.30;;;;;;484694;246;1104;-78
2022/05/28 08:41:19;;;;;;;;;;;21.10;45.20;;;;;;484655;246;1235;-79
2022/05/28 08:43:20;;;;;;;;;;;21.00;45.20;;;;;;484694;246;1126;-78
2022/05/28 08:45:22;;;;;;;;;;;21.00;45.10;;;;;;484681;246;2212;-78
2022/05/28 08:47:23;;;;;;;;;;;21.00;45.00;;;;;;484552;246;1115;-78
2022/05/28 08:49:24;;;;;;;;;;;21.00;44.90;;;;;;484596;246;1195;-78
2022/05/28 08:51:26;;;;;;;;;;;21.00;44.80;;;;;;484571;246;1140;-78
2022/05/28 08:53:27;;;;;;;;;;;21.00;44.70;;;;;;484667;246;1154;-79
2022/05/28 08:55:28;;;;;;;;;;;20.90;44.90;;;;;;484617;246;1166;-79
2022/05/28 08:57:30;;;;;;;;;;;21.00;44.90;;;;;;484598;246;1108;-78
2022/05/28 08:59:31;;;;;;;;;;;21.00;44.90;;;;;;484622;246;1131;-78
2022/05/28 09:01:32;;;;;;;;;;;21.00;44.80;;;;;;484588;246;1208;-78
2022/05/28 09:03:34;;;;;;;;;;;20.90;44.90;;;;;;484586;246;1157;-78
2022/05/28 09:05:35;;;;;;;;;;;20.90;45.00;;;;;;484539;242;2117;-78
2022/05/28 09:07:38;;;;;;;;;;;20.90;45.20;;;;;;484687;246;1001;-78
2022/05/28 09:09:38;;;;;;;;;;;20.90;45.10;;;;;;484630;246;1334;-78
2022/05/28 09:11:39;;;;;;;;;;;20.80;45.10;;;;;;484807;246;1084;-78
2022/05/28 09:13:40;;;;;;;;;;;20.90;45.10;;;;;;484604;246;1091;-78
2022/05/28 09:15:42;;;;;;;;;;;20.90;45.20;;;;;;484677;246;1219;-78
2022/05/28 09:17:43;;;;;;;;;;;20.90;45.00;;;;;;484707;246;1164;-79
2022/05/28 09:19:45;;;;;;;;;;;20.90;44.80;;;;;;484856;246;1195;-78
2022/05/28 09:21:46;;;;;;;;;;;21.00;44.90;;;;;;484562;246;1092;-78
2022/05/28 09:23:48;;;;;;;;;;;20.90;44.80;;;;;;484657;246;1183;-78
2022/05/28 09:25:49;;;;;;;;;;;21.00;44.90;;;;;;484618;246;2195;-78
2022/05/28 09:27:50;;;;;;;;;;;21.00;45.00;;;;;;484798;246;1138;-78
2022/05/28 09:29:51;;;;;;;;;;;21.00;45.00;;;;;;484853;242;1171;-78
2022/05/28 09:31:53;;;;;;;;;;;21.00;45.00;;;;;;484767;246;1125;-78
2022/05/28 09:33:54;;;;;;;;;;;20.90;45.00;;;;;;484811;246;1123;-78
2022/05/28 09:35:55;;;;;;;;;;;20.90;45.00;;;;;;484757;246;1172;-78
2022/05/28 09:37:57;;;;;;;;;;;20.90;45.00;;;;;;484567;246;1112;-78
2022/05/28 09:39:58;;;;;;;;;;;20.90;44.90;;;;;;484840;246;1096;-78
2022/05/28 09:41:59;;;;;;;;;;;21.00;44.80;;;;;;484659;246;1142;-78
2022/05/28 09:44:01;;;;;;;;;;;21.10;44.90;;;;;;484877;246;1185;-78
2022/05/28 09:46:02;;;;;;;;;;;21.00;44.80;;;;;;484665;246;2190;-78
2022/05/28 09:48:03;;;;;;;;;;;21.00;44.80;;;;;;484661;246;1093;-78
2022/05/28 09:50:05;;;;;;;;;;;20.90;44.70;;;;;;484649;246;1161;-78
2022/05/28 09:52:06;;;;;;;;;;;20.90;44.80;;;;;;484773;246;1094;-78
2022/05/28 09:54:20;;;;;;;;;;;20.90;44.80;;;;;;484709;246;1061;-78
2022/05/28 09:56:21;;;;;;;;;;;21.00;45.00;;;;;;484670;246;1165;-78
2022/05/28 09:58:23;;;;;;;;;;;20.90;44.90;;;;;;484606;246;1196;-78
2022/05/28 10:00:24;;;;;;;;;;;20.90;44.90;;;;;;484756;246;1169;-78
2022/05/28 10:02:26;;;;;;;;;;;20.90;44.90;;;;;;484791;246;1227;-78
2022/05/28 10:04:30;;;;;;;;;;;21.00;44.90;;;;;;484653;246;1194;-79
2022/05/28 10:06:31;;;;;;;;;;;21.00;44.90;;;;;;484583;246;2172;-78
2022/05/28 10:08:32;;;;;;;;;;;21.00;44.80;;;;;;484642;246;1108;-78
2022/05/28 10:10:35;;;;;;;;;;;21.00;44.80;;;;;;484620;246;1181;-79
2022/05/28 10:12:36;;;;;;;;;;;20.90;44.70;;;;;;484855;246;1108;-79
2022/05/28 10:14:37;;;;;;;;;;;20.90;44.70;;;;;;484665;246;960;-78
2022/05/28 10:16:38;;;;;;;;;;;21.00;44.70;;;;;;484834;246;1081;-78
2022/05/28 10:18:40;;;;;;;;;;;21.00;44.50;;;;;;484731;246;1155;-78
2022/05/28 10:20:41;;;;;;;;;;;21.00;44.60;;;;;;484969;246;1407;-78
2022/05/28 10:22:42;;;;;;;;;;;21.00;44.60;;;;;;484686;246;1104;-78
2022/05/28 10:24:43;;;;;;;;;;;21.00;44.60;;;;;;484653;246;1055;-79
2022/05/28 10:26:45;;;;;;;;;;;21.10;44.50;;;;;;484766;246;2175;-79
2022/05/28 10:28:46;;;;;;;;;;;21.10;44.50;;;;;;484718;246;958;-78
2022/05/28 10:30:47;;;;;;;;;;;21.10;44.50;;;;;;484723;246;1232;-78
2022/05/28 10:32:51;;;;;;;;;;;21.00;44.50;;;;;;484632;246;1091;-78
2022/05/28 10:34:50;;;;;;;;;;;21.00;44.50;;;;;;484780;246;1432;-78
2022/05/28 10:36:51;;;;;;;;;;;21.00;44.50;;;;;;484763;242;1127;-78
2022/05/28 10:38:53;;;;;;;;;;;21.10;44.50;;;;;;484660;246;1105;-79
2022/05/28 10:40:55;;;;;;;;;;;21.00;44.50;;;;;;484778;242;1174;-79
2022/05/28 10:42:56;;;;;;;;;;;21.10;44.60;;;;;;484957;246;1167;-79
2022/05/28 10:44:58;;;;;;;;;;;21.10;44.60;;;;;;484690;246;2191;-78
2022/05/28 10:46:59;;;;;;;;;;;21.10;44.80;;;;;;484632;246;1136;-78
2022/05/28 10:49:00;;;;;;;;;;;21.10;44.80;;;;;;484679;246;1196;-78
2022/05/28 10:51:01;;;;;;;;;;;21.20;44.70;;;;;;484821;246;1236;-78
2022/05/28 10:53:04;;;;;;;;;;;21.20;44.60;;;;;;484771;246;1161;-78
2022/05/28 10:55:04;;;;;;;;;;;21.10;44.50;;;;;;484702;246;1408;-79
2022/05/28 10:57:05;;;;;;;;;;;21.10;44.70;;;;;;484867;246;1118;-79
2022/05/28 10:59:07;;;;;;;;;;;21.10;44.60;;;;;;485003;246;1105;-78
2022/05/28 11:01:08;;;;;;;;;;;21.00;44.60;;;;;;484643;246;1109;-78
2022/05/28 11:03:09;;;;;;;;;;;21.00;44.80;;;;;;484609;246;1088;-78
2022/05/28 11:05:11;;;;;;;;;;;21.00;44.70;;;;;;484659;246;2180;-78
2022/05/28 11:07:12;;;;;;;;;;;21.10;44.70;;;;;;484819;246;1237;-78
2022/05/28 11:09:13;;;;;;;;;;;21.10;44.50;;;;;;484644;246;980;-78
2022/05/28 11:11:15;;;;;;;;;;;21.10;44.40;;;;;;484595;246;1082;-79
2022/05/28 11:13:16;;;;;;;;;;;21.10;44.30;;;;;;484636;246;1061;-79
2022/05/28 11:15:17;;;;;;;;;;;21.10;44.20;;;;;;484643;246;1256;-78
2022/05/28 11:17:20;;;;;;;;;;;21.10;44.00;;;;;;484598;246;1050;-78
2022/05/28 11:19:20;;;;;;;;;;;21.10;44.00;;;;;;484563;246;1505;-78
2022/05/28 11:21:21;;;;;;;;;;;21.10;43.90;;;;;;484578;246;972;-78
2022/05/28 11:23:23;;;;;;;;;;;21.10;43.80;;;;;;484689;246;959;-78
2022/05/28 11:25:24;;;;;;;;;;;21.10;43.90;;;;;;484683;246;2188;-78
2022/05/28 11:27:25;;;;;;;;;;;21.10;44.00;;;;;;484670;246;1218;-78
2022/05/28 11:29:27;;;;;;;;;;;21.00;44.00;;;;;;484607;246;1034;-78
2022/05/28 11:31:28;;;;;;;;;;;21.10;44.00;;;;;;484695;246;1203;-78
2022/05/28 11:33:30;;;;;;;;;;;21.10;43.90;;;;;;484704;246;972;-78
2022/05/28 11:35:31;;;;;;;;;;;21.10;43.80;;;;;;484597;246;1148;-79
2022/05/28 11:37:32;;;;;;;;;;;21.10;43.90;;;;;;484705;246;1331;-78
2022/05/28 11:39:34;;;;;;;;;;;21.10;43.90;;;;;;484676;246;993;-78
2022/05/28 11:41:35;;;;;;;;;;;21.00;44.00;;;;;;484632;246;957;-78
2022/05/28 11:43:40;;;;;;;;;;;21.00;43.90;;;;;;484973;246;1203;-78
2022/05/28 11:45:38;;;;;;;;;;;21.00;43.90;;;;;;484830;246;2136;-78
2022/05/28 11:47:40;;;;;;;;;;;21.10;43.90;;;;;;484681;246;1172;-78
2022/05/28 11:52:01;;;;;;;;;;;21.10;43.90;;;;;;484708;246;1149;-78
2022/05/28 11:54:02;;;;;;;;;;;21.10;43.70;;;;;;484720;246;1189;-78
2022/05/28 11:56:03;;;;;;;;;;;21.10;43.80;;;;;;484866;246;1131;-78
2022/05/28 11:58:05;;;;;;;;;;;21.00;43.70;;;;;;484566;246;1211;-78
2022/05/28 12:00:07;;;;;;;;;;;21.00;43.90;;;;;;484669;246;1128;-78
2022/05/28 12:02:10;;;;;;;;;;;21.00;43.90;;;;;;484758;246;1395;-79
2022/05/28 12:04:09;;;;;;;;;;;21.00;43.90;;;;;;484527;246;1382;-78